Airfield :
LOGIN :

Register | Disclaimer

   EN    FR    IT 

 










Legend :    VFR   Marginal VFR   IFR   Intensive IFR   Very Intensive IFR
Visi :
Ceiling :
>= 8 km
>= 3000ft
5 to 8 km
1000 to 3000 ft
1500m to 5 km
500 to 1000 ft
800 to 1500m
200 to 500 ft
< 800m
< 200 ft
Symbols :   Thunderstorms  Fog  Heavy snow  Heavy precipitations  Wind > 20 kt
SIGMETs :     Misc.  Thunderstorms  Icing  Turbulence  Mountain Waves  Volcanic Ashes






- Airport Elevation : 13 ft
- IATA code : LYX


EGMD - Lydd

CURRENT METAR :
  • 230450Z AUTO 31002KT 8000 NCD 07/06 Q1026

EXPIRED METARs :
  • 230420Z AUTO VRB02KT 9999 NCD 07/07 Q1026
  • 230350Z AUTO 27004KT 9000 NCD 07/07 Q1026
  • 230320Z AUTO 24006KT 5000 BR NCD 06/05 Q1026
  • 230250Z AUTO 35004KT 0750 FG NCD 05/05 Q1025
  • 230220Z AUTO 35003KT 0900 FG NCD 05/04 Q1025

TAF AMD TAF EGMD
Valid from the 23 at 03:00 until the 23 at 12:00 UTC


230253Z 2303/2312 27005KT 9999 FEW045
TEMPO 2303/2308 0300 FG
ATIS : +44 1797 322 422



MET'MAP, your aeronautical weather chart ! - Copyright ORBIFLY December 2007 - Disclaimer

ORBIFLY MET'MAP TEAM :

Programming & Development : Alexandra Zaïnal
Concept & original design : Baudouin d'Aumeries
Assistance for programming : Marc-Olivier Méhu
Technical & hardware support : Manuel Goepfert

Contact : metmap@orbifly.com




SOURCES & CREDITS :

   NOAA